sensor_id;sensor_type;location;lat;lon;timestamp;pressure;altitude;pressure_sealevel;temperature;humidity
46836;BME280;32573;51.290;6.926;2023-04-26T00:01:30;100461.28;;;3.66;100.00
46836;BME280;32573;51.290;6.926;2023-04-26T00:03:59;100472.25;;;3.62;100.00
46836;BME280;32573;51.290;6.926;2023-04-26T00:06:30;100471.19;;;3.58;100.00
46836;BME280;32573;51.290;6.926;2023-04-26T00:08:59;100462.44;;;3.56;100.00
46836;BME280;32573;51.290;6.926;2023-04-26T00:11:28;100476.06;;;3.54;100.00
46836;BME280;32573;51.290;6.926;2023-04-26T00:13:57;100470.81;;;3.52;100.00
46836;BME280;32573;51.290;6.926;2023-04-26T00:16:25;100465.53;;;3.51;100.00
46836;BME280;32573;51.290;6.926;2023-04-26T00:18:54;100471.44;;;3.48;100.00
46836;BME280;32573;51.290;6.926;2023-04-26T00:21:23;100466.84;;;3.44;100.00
46836;BME280;32573;51.290;6.926;2023-04-26T00:23:54;100466.69;;;3.41;100.00
46836;BME280;32573;51.290;6.926;2023-04-26T00:26:23;100464.69;;;3.37;100.00
46836;BME280;32573;51.290;6.926;2023-04-26T00:28:53;100460.16;;;3.33;100.00
46836;BME280;32573;51.290;6.926;2023-04-26T00:31:21;100458.97;;;3.28;100.00
46836;BME280;32573;51.290;6.926;2023-04-26T00:33:50;100460.56;;;3.26;100.00
46836;BME280;32573;51.290;6.926;2023-04-26T00:36:19;100454.28;;;3.22;100.00
46836;BME280;32573;51.290;6.926;2023-04-26T00:38:48;100465.34;;;3.19;100.00
46836;BME280;32573;51.290;6.926;2023-04-26T00:41:18;100454.81;;;3.16;100.00
46836;BME280;32573;51.290;6.926;2023-04-26T00:43:47;100455.53;;;3.14;100.00
46836;BME280;32573;51.290;6.926;2023-04-26T00:46:16;100456.22;;;3.11;100.00
46836;BME280;32573;51.290;6.926;2023-04-26T00:48:45;100445.69;;;3.08;100.00
46836;BME280;32573;51.290;6.926;2023-04-26T00:51:14;100446.28;;;3.04;100.00
46836;BME280;32573;51.290;6.926;2023-04-26T00:53:43;100447.09;;;3.03;100.00
46836;BME280;32573;51.290;6.926;2023-04-26T00:56:12;100444.41;;;3.01;100.00
46836;BME280;32573;51.290;6.926;2023-04-26T00:58:44;100440.94;;;3.01;100.00
46836;BME280;32573;51.290;6.926;2023-04-26T01:01:12;100444.13;;;2.97;100.00
46836;BME280;32573;51.290;6.926;2023-04-26T01:03:41;100450.81;;;2.93;100.00
46836;BME280;32573;51.290;6.926;2023-04-26T01:06:12;100449.72;;;2.90;100.00
46836;BME280;32573;51.290;6.926;2023-04-26T01:08:40;100445.97;;;2.85;100.00
46836;BME280;32573;51.290;6.926;2023-04-26T01:11:09;100444.97;;;2.83;100.00
46836;BME280;32573;51.290;6.926;2023-04-26T01:13:40;100450.84;;;2.80;100.00
46836;BME280;32573;51.290;6.926;2023-04-26T01:16:11;100454.13;;;2.77;100.00
46836;BME280;32573;51.290;6.926;2023-04-26T01:18:41;100458.28;;;2.75;100.00
46836;BME280;32573;51.290;6.926;2023-04-26T01:21:11;100462.47;;;2.73;100.00
46836;BME280;32573;51.290;6.926;2023-04-26T01:23:48;100459.69;;;2.70;100.00
46836;BME280;32573;51.290;6.926;2023-04-26T01:26:18;100460.47;;;2.69;100.00
46836;BME280;32573;51.290;6.926;2023-04-26T01:28:47;100453.53;;;2.68;100.00
46836;BME280;32573;51.290;6.926;2023-04-26T01:31:16;100462.09;;;2.67;100.00
46836;BME280;32573;51.290;6.926;2023-04-26T01:33:45;100456.91;;;2.67;100.00
46836;BME280;32573;51.290;6.926;2023-04-26T01:36:13;100460.28;;;2.66;100.00
46836;BME280;32573;51.290;6.926;2023-04-26T01:38:42;100461.88;;;2.64;100.00
46836;BME280;32573;51.290;6.926;2023-04-26T01:41:12;100456.50;;;2.61;100.00
46836;BME280;32573;51.290;6.926;2023-04-26T01:43:41;100455.44;;;2.57;100.00
46836;BME280;32573;51.290;6.926;2023-04-26T01:46:09;100458.72;;;2.55;100.00
46836;BME280;32573;51.290;6.926;2023-04-26T01:48:39;100462.00;;;2.52;100.00
46836;BME280;32573;51.290;6.926;2023-04-26T01:51:08;100453.94;;;2.48;100.00
46836;BME280;32573;51.290;6.926;2023-04-26T01:53:37;100452.06;;;2.45;100.00
46836;BME280;32573;51.290;6.926;2023-04-26T01:56:06;100452.84;;;2.44;100.00
46836;BME280;32573;51.290;6.926;2023-04-26T01:58:38;100450.19;;;2.43;100.00
46836;BME280;32573;51.290;6.926;2023-04-26T02:01:07;100455.22;;;2.41;100.00
46836;BME280;32573;51.290;6.926;2023-04-26T02:03:36;100460.19;;;2.38;100.00
46836;BME280;32573;51.290;6.926;2023-04-26T02:06:05;100458.31;;;2.35;100.00
46836;BME280;32573;51.290;6.926;2023-04-26T02:08:34;100457.31;;;2.33;100.00
46836;BME280;32573;51.290;6.926;2023-04-26T02:11:03;100457.19;;;2.32;100.00
46836;BME280;32573;51.290;6.926;2023-04-26T02:13:32;100461.47;;;2.31;100.00
46836;BME280;32573;51.290;6.926;2023-04-26T02:16:02;100457.91;;;2.29;100.00
46836;BME280;32573;51.290;6.926;2023-04-26T02:18:31;100462.09;;;2.27;100.00
46836;BME280;32573;51.290;6.926;2023-04-26T02:21:00;100457.69;;;2.26;100.00
46836;BME280;32573;51.290;6.926;2023-04-26T02:23:30;100464.44;;;2.24;100.00
46836;BME280;32573;51.290;6.926;2023-04-26T02:26:02;100457.31;;;2.20;100.00
46836;BME280;32573;51.290;6.926;2023-04-26T02:28:30;100466.66;;;2.18;100.00
46836;BME280;32573;51.290;6.926;2023-04-26T02:31:02;100461.28;;;2.15;100.00
46836;BME280;32573;51.290;6.926;2023-04-26T02:33:31;100466.22;;;2.12;100.00
46836;BME280;32573;51.290;6.926;2023-04-26T02:36:02;100454.91;;;2.10;100.00
46836;BME280;32573;51.290;6.926;2023-04-26T02:38:32;100460.09;;;2.10;100.00
46836;BME280;32573;51.290;6.926;2023-04-26T02:41:02;100462.56;;;2.08;100.00
46836;BME280;32573;51.290;6.926;2023-04-26T02:43:32;100452.13;;;2.07;100.00
46836;BME280;32573;51.290;6.926;2023-04-26T02:46:05;100457.28;;;2.07;100.00
46836;BME280;32573;51.290;6.926;2023-04-26T02:48:34;100452.03;;;2.05;100.00
46836;BME280;32573;51.290;6.926;2023-04-26T02:51:03;100452.81;;;2.04;100.00
46836;BME280;32573;51.290;6.926;2023-04-26T02:53:32;100451.84;;;2.02;100.00
46836;BME280;32573;51.290;6.926;2023-04-26T02:56:01;100456.88;;;2.01;100.00
46836;BME280;32573;51.290;6.926;2023-04-26T02:58:30;100454.31;;;2.01;100.00
46836;BME280;32573;51.290;6.926;2023-04-26T03:00:58;100453.41;;;2.00;100.00
46836;BME280;32573;51.290;6.926;2023-04-26T03:03:32;100449.13;;;2.01;100.00
46836;BME280;32573;51.290;6.926;2023-04-26T03:06:01;100447.34;;;2.00;100.00
46836;BME280;32573;51.290;6.926;2023-04-26T03:08:30;100449.63;;;1.95;100.00
46836;BME280;32573;51.290;6.926;2023-04-26T03:11:01;100452.09;;;1.93;100.00
46836;BME280;32573;51.290;6.926;2023-04-26T03:13:30;100451.03;;;1.90;100.00
46836;BME280;32573;51.290;6.926;2023-04-26T03:15:59;100444.84;;;1.88;100.00
46836;BME280;32573;51.290;6.926;2023-04-26T03:18:28;100449.00;;;1.86;100.00
46836;BME280;32573;51.290;6.926;2023-04-26T03:20:58;100444.53;;;1.83;100.00
46836;BME280;32573;51.290;6.926;2023-04-26T03:23:27;100441.84;;;1.82;100.00
46836;BME280;32573;51.290;6.926;2023-04-26T03:25:56;100444.44;;;1.82;100.00
46836;BME280;32573;51.290;6.926;2023-04-26T03:28:24;100447.94;;;1.82;100.00
46836;BME280;32573;51.290;6.926;2023-04-26T03:30:53;100437.50;;;1.81;100.00
46836;BME280;32573;51.290;6.926;2023-04-26T03:33:22;100437.38;;;1.79;100.00
46836;BME280;32573;51.290;6.926;2023-04-26T03:35:51;100429.63;;;1.79;100.00
46836;BME280;32573;51.290;6.926;2023-04-26T03:38:21;100429.56;;;1.78;100.00
46836;BME280;32573;51.290;6.926;2023-04-26T03:40:50;100424.28;;;1.76;100.00
46836;BME280;32573;51.290;6.926;2023-04-26T03:43:19;100427.53;;;1.73;100.00
46836;BME280;32573;51.290;6.926;2023-04-26T03:45:48;100428.25;;;1.71;100.00
46836;BME280;32573;51.290;6.926;2023-04-26T03:48:17;100422.19;;;1.70;100.00
46836;BME280;32573;51.290;6.926;2023-04-26T03:50:45;100431.63;;;1.70;100.00
46836;BME280;32573;51.290;6.926;2023-04-26T03:53:14;100435.78;;;1.68;100.00
46836;BME280;32573;51.290;6.926;2023-04-26T03:55:45;100432.06;;;1.64;100.00
46836;BME280;32573;51.290;6.926;2023-04-26T03:58:14;100429.41;;;1.63;100.00
46836;BME280;32573;51.290;6.926;2023-04-26T04:00:42;100437.94;;;1.62;100.00
46836;BME280;32573;51.290;6.926;2023-04-26T04:03:11;100436.16;;;1.61;100.00
46836;BME280;32573;51.290;6.926;2023-04-26T04:05:40;100438.63;;;1.59;100.00
46836;BME280;32573;51.290;6.926;2023-04-26T04:08:09;100432.56;;;1.59;100.00
46836;BME280;32573;51.290;6.926;2023-04-26T04:10:37;100428.97;;;1.57;100.00
46836;BME280;32573;51.290;6.926;2023-04-26T04:13:08;100431.56;;;1.57;100.00
46836;BME280;32573;51.290;6.926;2023-04-26T04:15:37;100436.72;;;1.57;100.00
46836;BME280;32573;51.290;6.926;2023-04-26T04:18:06;100444.38;;;1.55;100.00
46836;BME280;32573;51.290;6.926;2023-04-26T04:20:34;100439.09;;;1.54;100.00
46836;BME280;32573;51.290;6.926;2023-04-26T04:23:03;100441.47;;;1.50;100.00
46836;BME280;32573;51.290;6.926;2023-04-26T04:25:35;100438.78;;;1.49;100.00
46836;BME280;32573;51.290;6.926;2023-04-26T04:28:08;100444.81;;;1.49;100.00
46836;BME280;32573;51.290;6.926;2023-04-26T04:30:38;100437.09;;;1.49;100.00
46836;BME280;32573;51.290;6.926;2023-04-26T04:33:06;100444.06;;;1.50;100.00
46836;BME280;32573;51.290;6.926;2023-04-26T04:35:35;100452.56;;;1.49;100.00
46836;BME280;32573;51.290;6.926;2023-04-26T04:38:05;100449.97;;;1.49;100.00
46836;BME280;32573;51.290;6.926;2023-04-26T04:40:34;100456.84;;;1.49;100.00
46836;BME280;32573;51.290;6.926;2023-04-26T04:43:03;100452.47;;;1.48;100.00
46836;BME280;32573;51.290;6.926;2023-04-26T04:45:33;100460.09;;;1.46;100.00
46836;BME280;32573;51.290;6.926;2023-04-26T04:48:04;100449.00;;;1.47;100.00
46836;BME280;32573;51.290;6.926;2023-04-26T04:50:34;100452.34;;;1.46;100.00
46836;BME280;32573;51.290;6.926;2023-04-26T04:53:03;100453.25;;;1.47;100.00
46836;BME280;32573;51.290;6.926;2023-04-26T04:55:32;100453.25;;;1.47;100.00
46836;BME280;32573;51.290;6.926;2023-04-26T04:58:02;100455.94;;;1.48;100.00
46836;BME280;32573;51.290;6.926;2023-04-26T05:00:33;100465.47;;;1.49;100.00
46836;BME280;32573;51.290;6.926;2023-04-26T05:03:15;100468.03;;;1.49;100.00
46836;BME280;32573;51.290;6.926;2023-04-26T05:05:44;100472.44;;;1.50;100.00
46836;BME280;32573;51.290;6.926;2023-04-26T05:08:14;100468.28;;;1.53;100.00
46836;BME280;32573;51.290;6.926;2023-04-26T05:10:44;100472.50;;;1.52;100.00
46836;BME280;32573;51.290;6.926;2023-04-26T05:13:14;100478.59;;;1.53;100.00
46836;BME280;32573;51.290;6.926;2023-04-26T05:15:45;100482.13;;;1.55;100.00
46836;BME280;32573;51.290;6.926;2023-04-26T05:18:16;100486.59;;;1.57;100.00
46836;BME280;32573;51.290;6.926;2023-04-26T05:20:44;100478.09;;;1.58;100.00
46836;BME280;32573;51.290;6.926;2023-04-26T05:23:14;100481.56;;;1.59;100.00
46836;BME280;32573;51.290;6.926;2023-04-26T05:25:43;100485.94;;;1.60;100.00
46836;BME280;32573;51.290;6.926;2023-04-26T05:28:31;100486.16;;;1.63;100.00
46836;BME280;32573;51.290;6.926;2023-04-26T05:31:34;100480.41;;;1.67;100.00
46836;BME280;32573;51.290;6.926;2023-04-26T05:34:09;100487.56;;;1.71;100.00
46836;BME280;32573;51.290;6.926;2023-04-26T05:36:39;100485.19;;;1.74;100.00
46836;BME280;32573;51.290;6.926;2023-04-26T05:39:08;100486.31;;;1.78;100.00
46836;BME280;32573;51.290;6.926;2023-04-26T05:41:38;100498.63;;;1.82;100.00
46836;BME280;32573;51.290;6.926;2023-04-26T05:44:08;100495.47;;;1.86;100.00
46836;BME280;32573;51.290;6.926;2023-04-26T05:46:38;100502.72;;;1.91;100.00
46836;BME280;32573;51.290;6.926;2023-04-26T05:49:09;100499.56;;;1.96;100.00
46836;BME280;32573;51.290;6.926;2023-04-26T05:51:38;100505.13;;;2.02;100.00
46836;BME280;32573;51.290;6.926;2023-04-26T05:54:07;100501.16;;;2.07;100.00
46836;BME280;32573;51.290;6.926;2023-04-26T05:56:37;100507.53;;;2.12;100.00
46836;BME280;32573;51.290;6.926;2023-04-26T05:59:07;100500.22;;;2.18;100.00
46836;BME280;32573;51.290;6.926;2023-04-26T06:01:47;100506.69;;;2.25;100.00
46836;BME280;32573;51.290;6.926;2023-04-26T06:04:16;100514.00;;;2.32;100.00
46836;BME280;32573;51.290;6.926;2023-04-26T06:06:58;100506.69;;;2.38;100.00
46836;BME280;32573;51.290;6.926;2023-04-26T06:09:30;100507.19;;;2.46;100.00
46836;BME280;32573;51.290;6.926;2023-04-26T06:11:59;100513.75;;;2.54;100.00
46836;BME280;32573;51.290;6.926;2023-04-26T06:14:29;100515.94;;;2.61;100.00
46836;BME280;32573;51.290;6.926;2023-04-26T06:17:05;100520.72;;;2.68;100.00
46836;BME280;32573;51.290;6.926;2023-04-26T06:19:34;100514.34;;;2.76;100.00
46836;BME280;32573;51.290;6.926;2023-04-26T06:22:04;100514.94;;;2.86;100.00
46836;BME280;32573;51.290;6.926;2023-04-26T06:24:33;100528.53;;;2.96;100.00
46836;BME280;32573;51.290;6.926;2023-04-26T06:27:02;100529.13;;;3.06;100.00
46836;BME280;32573;51.290;6.926;2023-04-26T06:29:32;100527.91;;;3.14;100.00
46836;BME280;32573;51.290;6.926;2023-04-26T06:32:01;100526.81;;;3.23;100.00
46836;BME280;32573;51.290;6.926;2023-04-26T06:34:31;100533.34;;;3.32;100.00
46836;BME280;32573;51.290;6.926;2023-04-26T06:37:00;100524.47;;;3.41;100.00
46836;BME280;32573;51.290;6.926;2023-04-26T06:39:29;100531.13;;;3.51;100.00
46836;BME280;32573;51.290;6.926;2023-04-26T06:41:59;100535.06;;;3.59;100.00
46836;BME280;32573;51.290;6.926;2023-04-26T06:44:46;100542.63;;;3.70;100.00
46836;BME280;32573;51.290;6.926;2023-04-26T06:47:16;100531.03;;;3.78;100.00
46836;BME280;32573;51.290;6.926;2023-04-26T06:49:48;100535.84;;;3.86;100.00
46836;BME280;32573;51.290;6.926;2023-04-26T06:52:17;100535.53;;;3.95;100.00
46836;BME280;32573;51.290;6.926;2023-04-26T06:54:48;100532.53;;;4.02;100.00
46836;BME280;32573;51.290;6.926;2023-04-26T06:57:24;100528.69;;;4.10;100.00
46836;BME280;32573;51.290;6.926;2023-04-26T06:59:56;100523.94;;;4.18;100.00
46836;BME280;32573;51.290;6.926;2023-04-26T07:02:25;100520.91;;;4.25;100.00
46836;BME280;32573;51.290;6.926;2023-04-26T07:04:56;100521.38;;;4.33;100.00
46836;BME280;32573;51.290;6.926;2023-04-26T07:07:25;100525.28;;;4.41;100.00
46836;BME280;32573;51.290;6.926;2023-04-26T07:09:54;100523.97;;;4.48;100.00
46836;BME280;32573;51.290;6.926;2023-04-26T07:12:23;100527.00;;;4.56;100.00
46836;BME280;32573;51.290;6.926;2023-04-26T07:14:53;100525.81;;;4.65;100.00
46836;BME280;32573;51.290;6.926;2023-04-26T07:17:22;100526.34;;;4.74;100.00
46836;BME280;32573;51.290;6.926;2023-04-26T07:19:52;100529.38;;;4.82;100.00
46836;BME280;32573;51.290;6.926;2023-04-26T07:22:24;100532.47;;;4.91;100.00
46836;BME280;32573;51.290;6.926;2023-04-26T07:24:53;100529.41;;;4.98;100.00
46836;BME280;32573;51.290;6.926;2023-04-26T07:27:22;100529.94;;;5.08;100.00
46836;BME280;32573;51.290;6.926;2023-04-26T07:29:53;100524.28;;;5.15;100.00
46836;BME280;32573;51.290;6.926;2023-04-26T07:32:23;100523.00;;;5.23;100.00
46836;BME280;32573;51.290;6.926;2023-04-26T07:34:53;100526.13;;;5.32;100.00
46836;BME280;32573;51.290;6.926;2023-04-26T07:37:23;100518.75;;;5.40;100.00
46836;BME280;32573;51.290;6.926;2023-04-26T07:39:52;100519.16;;;5.48;100.00
46836;BME280;32573;51.290;6.926;2023-04-26T07:42:22;100514.47;;;5.57;100.00
46836;BME280;32573;51.290;6.926;2023-04-26T07:44:51;100513.25;;;5.67;100.00
46836;BME280;32573;51.290;6.926;2023-04-26T07:47:20;100511.94;;;5.75;100.00
46836;BME280;32573;51.290;6.926;2023-04-26T07:49:52;100521.13;;;5.84;100.00
46836;BME280;32573;51.290;6.926;2023-04-26T07:52:21;100513.81;;;5.94;100.00
46836;BME280;32573;51.290;6.926;2023-04-26T07:54:52;100512.53;;;6.02;100.00
46836;BME280;32573;51.290;6.926;2023-04-26T07:57:21;100513.81;;;6.10;100.00
46836;BME280;32573;51.290;6.926;2023-04-26T07:59:50;100528.91;;;6.17;100.00
46836;BME280;32573;51.290;6.926;2023-04-26T08:02:19;100525.63;;;6.21;100.00
46836;BME280;32573;51.290;6.926;2023-04-26T08:05:08;100519.00;;;6.26;100.00
46836;BME280;32573;51.290;6.926;2023-04-26T08:07:37;100517.56;;;6.33;100.00
46836;BME280;32573;51.290;6.926;2023-04-26T08:10:09;100516.97;;;6.39;100.00
46836;BME280;32573;51.290;6.926;2023-04-26T08:12:39;100507.78;;;6.45;100.00
46836;BME280;32573;51.290;6.926;2023-04-26T08:15:09;100505.56;;;6.53;100.00
46836;BME280;32573;51.290;6.926;2023-04-26T08:17:38;100505.06;;;6.60;100.00
46836;BME280;32573;51.290;6.926;2023-04-26T08:20:08;100516.81;;;6.70;100.00
46836;BME280;32573;51.290;6.926;2023-04-26T08:22:38;100505.00;;;6.77;100.00
46836;BME280;32573;51.290;6.926;2023-04-26T08:25:09;100513.97;;;6.83;100.00
46836;BME280;32573;51.290;6.926;2023-04-26T08:27:42;100513.41;;;6.89;100.00
46836;BME280;32573;51.290;6.926;2023-04-26T08:30:12;100505.88;;;6.95;100.00
46836;BME280;32573;51.290;6.926;2023-04-26T08:32:43;100508.75;;;7.01;100.00
46836;BME280;32573;51.290;6.926;2023-04-26T08:35:15;100507.28;;;7.06;100.00
46836;BME280;32573;51.290;6.926;2023-04-26T08:37:48;100510.09;;;7.11;100.00
46836;BME280;32573;51.290;6.926;2023-04-26T08:40:22;100511.13;;;7.15;100.00
46836;BME280;32573;51.290;6.926;2023-04-26T08:42:51;100518.25;;;7.19;100.00
46836;BME280;32573;51.290;6.926;2023-04-26T08:45:22;100514.97;;;7.23;100.00
46836;BME280;32573;51.290;6.926;2023-04-26T08:47:52;100518.56;;;7.25;100.00
46836;BME280;32573;51.290;6.926;2023-04-26T08:50:24;100525.69;;;7.29;100.00
46836;BME280;32573;51.290;6.926;2023-04-26T08:52:53;100513.63;;;7.31;100.00
46836;BME280;32573;51.290;6.926;2023-04-26T08:55:25;100520.91;;;7.38;100.00
46836;BME280;32573;51.290;6.926;2023-04-26T08:57:55;100521.19;;;7.44;100.00
46836;BME280;32573;51.290;6.926;2023-04-26T09:00:26;100509.16;;;7.46;100.00
46836;BME280;32573;51.290;6.926;2023-04-26T09:02:55;100514.63;;;7.52;100.00
46836;BME280;32573;51.290;6.926;2023-04-26T09:05:24;100515.59;;;7.54;100.00
46836;BME280;32573;51.290;6.926;2023-04-26T09:07:56;100516.69;;;7.60;100.00
46836;BME280;32573;51.290;6.926;2023-04-26T09:10:29;100520.53;;;7.68;100.00
46836;BME280;32573;51.290;6.926;2023-04-26T09:12:59;100522.59;;;7.75;100.00
46836;BME280;32573;51.290;6.926;2023-04-26T09:15:28;100514.22;;;7.82;100.00
46836;BME280;32573;51.290;6.926;2023-04-26T09:18:16;100512.59;;;7.84;100.00
46836;BME280;32573;51.290;6.926;2023-04-26T09:21:00;100522.31;;;7.88;100.00
46836;BME280;32573;51.290;6.926;2023-04-26T09:23:30;100512.84;;;7.90;100.00
46836;BME280;32573;51.290;6.926;2023-04-26T09:26:17;100517.38;;;7.94;100.00
46836;BME280;32573;51.290;6.926;2023-04-26T09:28:47;100522.72;;;7.97;100.00
46836;BME280;32573;51.290;6.926;2023-04-26T09:31:37;100506.53;;;8.05;100.00
46836;BME280;32573;51.290;6.926;2023-04-26T09:34:08;100514.59;;;8.11;100.00
46836;BME280;32573;51.290;6.926;2023-04-26T09:36:49;100509.66;;;8.17;100.00
46836;BME280;32573;51.290;6.926;2023-04-26T09:39:32;100508.81;;;8.18;100.00
46836;BME280;32573;51.290;6.926;2023-04-26T09:42:04;100506.31;;;8.19;100.00
46836;BME280;32573;51.290;6.926;2023-04-26T09:44:34;100503.75;;;8.21;100.00
46836;BME280;32573;51.290;6.926;2023-04-26T09:47:05;100504.69;;;8.23;100.00
46836;BME280;32573;51.290;6.926;2023-04-26T09:49:44;100503.34;;;8.31;100.00
46836;BME280;32573;51.290;6.926;2023-04-26T09:52:16;100510.44;;;8.35;100.00
46836;BME280;32573;51.290;6.926;2023-04-26T09:54:47;100499.25;;;8.38;100.00
46836;BME280;32573;51.290;6.926;2023-04-26T09:57:18;100501.13;;;8.40;100.00
46836;BME280;32573;51.290;6.926;2023-04-26T09:59:49;100501.13;;;8.40;100.00
46836;BME280;32573;51.290;6.926;2023-04-26T10:02:24;100493.97;;;8.36;100.00
46836;BME280;32573;51.290;6.926;2023-04-26T10:04:55;100490.53;;;8.37;100.00
46836;BME280;32573;51.290;6.926;2023-04-26T10:07:30;100494.25;;;8.42;100.00
46836;BME280;32573;51.290;6.926;2023-04-26T10:09:59;100488.47;;;8.50;100.00
46836;BME280;32573;51.290;6.926;2023-04-26T10:12:30;100486.94;;;8.55;100.00
46836;BME280;32573;51.290;6.926;2023-04-26T10:14:58;100494.00;;;8.57;100.00
46836;BME280;32573;51.290;6.926;2023-04-26T10:17:27;100489.88;;;8.62;100.00
46836;BME280;32573;51.290;6.926;2023-04-26T10:19:57;100492.66;;;8.67;100.00
46836;BME280;32573;51.290;6.926;2023-04-26T10:22:30;100488.53;;;8.72;100.00
46836;BME280;32573;51.290;6.926;2023-04-26T10:25:00;100480.00;;;8.76;100.00
46836;BME280;32573;51.290;6.926;2023-04-26T10:27:51;100495.78;;;8.79;100.00
46836;BME280;32573;51.290;6.926;2023-04-26T10:30:21;100481.88;;;8.80;100.00
46836;BME280;32573;51.290;6.926;2023-04-26T10:33:13;100484.50;;;8.80;100.00
46836;BME280;32573;51.290;6.926;2023-04-26T10:35:59;100478.69;;;8.88;100.00
46836;BME280;32573;51.290;6.926;2023-04-26T10:38:29;100474.63;;;8.94;100.00
46836;BME280;32573;51.290;6.926;2023-04-26T10:44:38;100479.66;;;9.12;100.00
46836;BME280;32573;51.290;6.926;2023-04-26T10:47:30;100471.91;;;9.14;100.00
46836;BME280;32573;51.290;6.926;2023-04-26T10:50:04;100472.19;;;9.21;100.00
46836;BME280;32573;51.290;6.926;2023-04-26T10:52:38;100470.63;;;9.26;100.00
46836;BME280;32573;51.290;6.926;2023-04-26T10:55:37;100472.31;;;9.24;100.00
46836;BME280;32573;51.290;6.926;2023-04-26T10:58:25;100469.69;;;9.24;100.00
46836;BME280;32573;51.290;6.926;2023-04-26T11:01:14;100467.06;;;9.24;100.00
46836;BME280;32573;51.290;6.926;2023-04-26T11:04:04;100461.06;;;9.27;100.00
46836;BME280;32573;51.290;6.926;2023-04-26T11:06:47;100466.38;;;9.28;100.00
46836;BME280;32573;51.290;6.926;2023-04-26T11:09:34;100464.66;;;9.29;100.00
46836;BME280;32573;51.290;6.926;2023-04-26T11:12:04;100467.00;;;9.23;100.00
46836;BME280;32573;51.290;6.926;2023-04-26T11:14:33;100461.75;;;9.21;100.00
46836;BME280;32573;51.290;6.926;2023-04-26T11:17:04;100467.00;;;9.23;100.00
46836;BME280;32573;51.290;6.926;2023-04-26T11:19:34;100468.03;;;9.26;100.00
46836;BME280;32573;51.290;6.926;2023-04-26T11:22:05;100471.63;;;9.30;100.00
46836;BME280;32573;51.290;6.926;2023-04-26T11:24:35;100461.25;;;9.32;100.00
46836;BME280;32573;51.290;6.926;2023-04-26T11:27:07;100461.38;;;9.35;100.00
46836;BME280;32573;51.290;6.926;2023-04-26T11:29:36;100464.16;;;9.39;100.00
46836;BME280;32573;51.290;6.926;2023-04-26T11:32:08;100457.41;;;9.46;100.00
46836;BME280;32573;51.290;6.926;2023-04-26T11:34:45;100454.16;;;9.52;100.00
46836;BME280;32573;51.290;6.926;2023-04-26T11:37:17;100455.22;;;9.57;100.00
46836;BME280;32573;51.290;6.926;2023-04-26T11:39:45;100454.44;;;9.59;100.00
46836;BME280;32573;51.290;6.926;2023-04-26T11:42:14;100455.50;;;9.64;100.00
46836;BME280;32573;51.290;6.926;2023-04-26T11:44:43;100452.97;;;9.67;100.00
46836;BME280;32573;51.290;6.926;2023-04-26T11:47:15;100455.69;;;9.70;100.00
46836;BME280;32573;51.290;6.926;2023-04-26T11:49:45;100450.25;;;9.64;100.00
46836;BME280;32573;51.290;6.926;2023-04-26T11:52:14;100455.50;;;9.64;100.00
46836;BME280;32573;51.290;6.926;2023-04-26T11:54:42;100446.03;;;9.68;100.00
46836;BME280;32573;51.290;6.926;2023-04-26T11:57:14;100448.91;;;9.76;100.00
46836;BME280;32573;51.290;6.926;2023-04-26T11:59:44;100445.66;;;9.81;100.00
46836;BME280;32573;51.290;6.926;2023-04-26T12:02:13;100440.69;;;9.89;100.00
46836;BME280;32573;51.290;6.926;2023-04-26T12:04:43;100441.78;;;9.96;100.00
46836;BME280;32573;51.290;6.926;2023-04-26T12:07:17;100444.53;;;10.00;100.00
46836;BME280;32573;51.290;6.926;2023-04-26T12:09:49;100449.09;;;10.06;100.00
46836;BME280;32573;51.290;6.926;2023-04-26T12:12:19;100443.94;;;10.07;100.00
46836;BME280;32573;51.290;6.926;2023-04-26T12:14:51;100455.34;;;10.09;100.00
46836;BME280;32573;51.290;6.926;2023-04-26T12:17:19;100453.56;;;10.08;100.00
46836;BME280;32573;51.290;6.926;2023-04-26T12:19:49;100451.66;;;10.04;100.00
46836;BME280;32573;51.290;6.926;2023-04-26T12:22:19;100447.25;;;10.03;100.00
46836;BME280;32573;51.290;6.926;2023-04-26T12:24:48;100449.16;;;10.07;100.00
46836;BME280;32573;51.290;6.926;2023-04-26T12:27:20;100451.66;;;10.04;100.00
46836;BME280;32573;51.290;6.926;2023-04-26T12:29:49;100446.44;;;10.04;100.00
46836;BME280;32573;51.290;6.926;2023-04-26T12:32:18;100451.88;;;10.10;100.00
46836;BME280;32573;51.290;6.926;2023-04-26T12:34:50;100446.97;;;10.20;100.00
46836;BME280;32573;51.290;6.926;2023-04-26T12:37:20;100444.50;;;10.24;100.00
46836;BME280;32573;51.290;6.926;2023-04-26T12:39:50;100435.28;;;10.34;100.00
46836;BME280;32573;51.290;6.926;2023-04-26T12:42:19;100437.38;;;10.46;100.00
46836;BME280;32573;51.290;6.926;2023-04-26T12:44:48;100437.75;;;10.56;100.00
46836;BME280;32573;51.290;6.926;2023-04-26T12:47:16;100445.06;;;10.67;100.00
46836;BME280;32573;51.290;6.926;2023-04-26T12:49:45;100440.00;;;10.73;100.00
46836;BME280;32573;51.290;6.926;2023-04-26T12:52:14;100441.88;;;10.77;100.00
46836;BME280;32573;51.290;6.926;2023-04-26T12:54:43;100446.47;;;10.84;100.00
46836;BME280;32573;51.290;6.926;2023-04-26T12:57:13;100441.56;;;10.95;100.00
46836;BME280;32573;51.290;6.926;2023-04-26T12:59:41;100442.66;;;11.01;100.00
46836;BME280;32573;51.290;6.926;2023-04-26T13:02:10;100435.81;;;11.07;100.00
46836;BME280;32573;51.290;6.926;2023-04-26T13:04:38;100441.22;;;11.13;100.00
46836;BME280;32573;51.290;6.926;2023-04-26T13:07:08;100438.66;;;11.14;100.00
46836;BME280;32573;51.290;6.926;2023-04-26T13:09:38;100441.88;;;11.06;100.00
46836;BME280;32573;51.290;6.926;2023-04-26T13:12:06;100434.94;;;11.06;100.00
46836;BME280;32573;51.290;6.926;2023-04-26T13:14:35;100442.41;;;11.22;100.00